Time;durP1;ratioP1;P1;durP2;ratioP2;P2;SDS_P1;SDS_P2;PMS_P1;PMS_P2;Temp;Humidity;BMP_temperature;BMP_pressure;BME280_temperature;BME280_humidity;BME280_pressure;Samples;Min_cycle;Max_cycle;Signal;HPM_P1;HPM_P2
2023/05/16 00:01:40;;;;;;;8.27;7.22;;;;;;;13.42;94.13;100169.66;5071612;28;20659;-75
2023/05/16 00:04:07;;;;;;;10.77;7.53;;;;;;;13.45;92.92;100164.13;5080597;28;20651;-73
2023/05/16 00:06:34;;;;;;;10.45;7.93;;;;;;;13.49;92.85;100172.66;5064817;28;20602;-74
2023/05/16 00:09:02;;;;;;;11.00;7.22;;;;;;;13.51;92.18;100168.94;5084731;28;20512;-73
2023/05/16 00:11:29;;;;;;;9.68;7.85;;;;;;;13.52;91.88;100177.72;5083225;28;20229;-72
2023/05/16 00:13:57;;;;;;;9.75;7.45;;;;;;;13.50;91.40;100174.31;5083978;28;20152;-73
2023/05/16 00:16:24;;;;;;;10.40;7.75;;;;;;;13.50;91.22;100183.09;5083243;28;20059;-74
2023/05/16 00:18:52;;;;;;;11.23;7.38;;;;;;;13.50;91.25;100183.09;5086374;28;20130;-75
2023/05/16 00:21:19;;;;;;;6.85;6.15;;;;;;;13.49;91.27;100193.81;5088304;28;20127;-74
2023/05/16 00:23:51;;;;;;;9.77;7.10;;;;;;;13.47;91.48;100193.94;5090025;28;20120;-74
2023/05/16 00:26:18;;;;;;;10.52;7.45;;;;;;;13.47;91.95;100196.59;5088410;28;20048;-73
2023/05/16 00:28:46;;;;;;;9.35;8.10;;;;;;;13.41;92.68;100191.75;5084719;28;20456;-73
2023/05/16 00:31:13;;;;;;;9.15;7.07;;;;;;;13.38;93.16;100189.38;5087200;28;20040;-75
2023/05/16 00:33:43;;;;;;;9.38;8.48;;;;;;;13.32;93.71;100197.75;5090281;28;20047;-74
2023/05/16 00:36:11;;;;;;;9.18;8.02;;;;;;;13.27;94.16;100191.97;5082157;28;20143;-74
2023/05/16 00:38:38;;;;;;;13.70;8.70;;;;;;;13.25;94.80;100193.91;5086997;28;20249;-73
2023/05/16 00:41:05;;;;;;;9.50;8.60;;;;;;;13.19;94.95;100192.53;5087661;28;20039;-74
2023/05/16 00:43:33;;;;;;;11.05;9.40;;;;;;;13.16;95.38;100190.13;5069023;28;20130;-74
2023/05/16 00:46:00;;;;;;;9.27;8.38;;;;;;;13.15;95.88;100186.66;5085725;28;20133;-73
2023/05/16 00:48:28;;;;;;;13.82;9.25;;;;;;;13.13;96.21;100195.66;5089831;28;20087;-74
2023/05/16 00:50:55;;;;;;;13.30;9.82;;;;;;;13.11;96.72;100193.13;5083907;28;20052;-74
2023/05/16 00:53:23;;;;;;;10.70;9.60;;;;;;;13.04;96.63;100199.00;5070703;28;20692;-73
2023/05/16 00:55:54;;;;;;;10.98;9.27;;;;;;;13.04;97.04;100204.28;5075654;28;20079;-74
2023/05/16 00:58:22;;;;;;;10.57;8.95;;;;;;;12.98;97.84;100207.41;5078558;28;20060;-74
2023/05/16 01:00:49;;;;;;;11.93;9.18;;;;;;;12.94;98.23;100209.41;5076342;28;20048;-73
2023/05/16 01:03:17;;;;;;;11.32;9.75;;;;;;;12.87;98.55;100209.03;5099064;28;20060;-74
2023/05/16 01:05:45;;;;;;;13.27;10.70;;;;;;;12.86;99.46;100209.16;5080476;28;20052;-73
2023/05/16 01:08:12;;;;;;;12.38;9.45;;;;;;;12.81;100.00;100213.94;5085840;28;20135;-75
2023/05/16 01:10:44;;;;;;;12.88;11.05;;;;;;;12.72;100.00;100225.19;5082252;28;20048;-74
2023/05/16 01:13:18;;;;;;;17.27;11.25;;;;;;;12.69;100.00;100223.59;5084127;28;20043;-74
2023/05/16 01:16:15;;;;;;;15.15;11.65;;;;;;;12.67;100.00;100236.09;5079051;28;20044;-73
2023/05/16 01:19:07;;;;;;;17.02;12.68;;;;;;;12.56;100.00;100225.47;5057832;28;20076;-74
2023/05/16 01:21:42;;;;;;;17.15;13.13;;;;;;;12.50;100.00;100226.75;5082789;28;20072;-74
2023/05/16 01:24:46;;;;;;;18.23;14.93;;;;;;;12.47;100.00;100231.41;5077163;28;20040;-74
2023/05/16 01:27:15;;;;;;;18.35;14.65;;;;;;;12.38;100.00;100241.72;5082602;28;20135;-75
2023/05/16 01:29:42;;;;;;;20.42;14.80;;;;;;;12.39;100.00;100242.56;5054508;28;20262;-74
2023/05/16 01:32:10;;;;;;;20.35;17.08;;;;;;;12.35;100.00;100255.13;5077659;28;20127;-76
2023/05/16 01:34:38;;;;;;;23.33;16.77;;;;;;;12.31;100.00;100244.91;5080543;28;20048;-73
2023/05/16 01:37:15;;;;;;;21.10;16.77;;;;;;;12.30;100.00;100259.06;5066565;28;20068;-73
2023/05/16 01:40:06;;;;;;;19.25;16.67;;;;;;;12.28;100.00;100259.16;5070428;28;20048;-74
2023/05/16 01:42:36;;;;;;;24.90;18.27;;;;;;;12.18;100.00;100254.66;5066602;28;20040;-74
2023/05/16 01:45:06;;;;;;;21.27;17.00;;;;;;;12.13;100.00;100261.09;5084963;28;20400;-76
2023/05/16 01:47:35;;;;;;;24.60;18.67;;;;;;;12.09;100.00;100256.16;5083659;28;20028;-76
2023/05/16 01:50:09;;;;;;;20.10;17.50;;;;;;;12.05;100.00;100273.16;5081109;28;20044;-74
2023/05/16 01:52:40;;;;;;;20.48;16.42;;;;;;;11.91;100.00;100268.84;5081968;28;20074;-75
2023/05/16 01:55:11;;;;;;;20.35;18.23;;;;;;;11.88;100.00;100282.22;5065470;28;20044;-74
2023/05/16 01:57:39;;;;;;;19.70;17.75;;;;;;;11.84;100.00;100281.63;5083544;28;20159;-74
2023/05/16 02:00:07;;;;;;;23.38;16.67;;;;;;;11.79;100.00;100288.13;5066496;28;20564;-73
2023/05/16 02:02:34;;;;;;;22.60;16.88;;;;;;;11.73;100.00;100283.28;5076151;28;20117;-74
2023/05/16 02:05:02;;;;;;;25.77;18.13;;;;;;;11.70;100.00;100292.22;5085315;28;20283;-74
2023/05/16 02:07:29;;;;;;;19.30;16.52;;;;;;;11.68;100.00;100288.88;5079923;28;20048;-75
2023/05/16 02:09:56;;;;;;;21.85;16.55;;;;;;;11.63;100.00;100288.34;5082893;28;20163;-76
2023/05/16 02:12:24;;;;;;;20.35;16.77;;;;;;;11.60;100.00;100291.19;5097979;28;20060;-77
2023/05/16 02:14:51;;;;;;;21.02;16.38;;;;;;;11.59;100.00;100300.06;5072243;28;20045;-75
2023/05/16 02:17:18;;;;;;;25.55;16.13;;;;;;;11.57;100.00;100302.81;5089507;28;20150;-74
2023/05/16 02:19:45;;;;;;;23.63;17.60;;;;;;;11.49;100.00;100307.75;5089474;28;20132;-75
2023/05/16 02:22:13;;;;;;;21.65;18.38;;;;;;;11.36;100.00;100313.00;5085711;28;20112;-75
2023/05/16 02:24:40;;;;;;;27.50;19.05;;;;;;;11.35;100.00;100316.59;5086672;28;20106;-78
2023/05/16 02:27:07;;;;;;;26.23;16.90;;;;;;;11.26;100.00;100316.38;5089520;28;20056;-75
2023/05/16 02:29:35;;;;;;;20.90;18.58;;;;;;;11.20;100.00;100320.22;5083741;28;20067;-76
2023/05/16 02:32:02;;;;;;;24.52;16.95;;;;;;;11.12;100.00;100326.03;5086064;28;20048;-75
2023/05/16 02:34:29;;;;;;;21.77;16.42;;;;;;;11.07;100.00;100324.63;5095257;28;20056;-74
2023/05/16 02:36:56;;;;;;;30.85;17.48;;;;;;;11.01;100.00;100330.28;5094833;28;20040;-75
2023/05/16 02:39:24;;;;;;;23.25;17.85;;;;;;;10.95;100.00;100344.72;5086789;28;20068;-74
2023/05/16 02:41:51;;;;;;;25.10;17.58;;;;;;;10.88;100.00;100346.03;5086049;28;20130;-75
2023/05/16 02:44:18;;;;;;;19.42;16.95;;;;;;;10.88;100.00;100351.31;5089090;28;20120;-73
2023/05/16 02:46:47;;;;;;;21.92;17.20;;;;;;;10.87;100.00;100341.72;5086801;28;20138;-73
2023/05/16 02:53:41;;;;;;;23.60;18.58;;;;;;;10.80;100.00;100345.69;5082642;28;20105;-77
2023/05/16 02:56:09;;;;;;;21.90;16.20;;;;;;;10.82;100.00;100342.03;5083727;28;20155;-75
2023/05/16 02:58:36;;;;;;;23.77;17.50;;;;;;;10.79;100.00;100349.28;5082124;28;20119;-73
2023/05/16 03:01:04;;;;;;;25.45;16.63;;;;;;;10.84;100.00;100355.91;5082971;28;20097;-75
2023/05/16 03:03:34;;;;;;;24.13;18.08;;;;;;;10.82;100.00;100356.97;5091107;28;20123;-75
2023/05/16 03:06:05;;;;;;;22.27;17.73;;;;;;;10.82;100.00;100363.09;5073917;28;20072;-78
2023/05/16 03:08:32;;;;;;;20.33;17.90;;;;;;;10.82;100.00;100356.97;5086828;28;20052;-75
2023/05/16 03:11:00;;;;;;;24.00;19.25;;;;;;;10.87;100.00;100360.16;5090401;28;20143;-74
2023/05/16 03:13:29;;;;;;;23.95;18.98;;;;;;;10.88;100.00;100365.31;5067107;28;20059;-75
2023/05/16 03:15:56;;;;;;;25.10;17.35;;;;;;;10.86;100.00;100366.38;5091215;28;20058;-73
2023/05/16 03:18:23;;;;;;;24.13;16.02;;;;;;;10.85;100.00;100378.69;5082082;28;20058;-75
2023/05/16 03:20:51;;;;;;;22.98;18.65;;;;;;;10.85;100.00;100383.09;5082427;28;20043;-74
2023/05/16 03:23:19;;;;;;;23.23;18.98;;;;;;;10.85;100.00;100380.47;5086255;28;20057;-74
2023/05/16 03:25:47;;;;;;;28.60;17.15;;;;;;;10.81;100.00;100387.75;5088047;28;20106;-73
2023/05/16 03:28:16;;;;;;;22.48;17.17;;;;;;;10.81;100.00;100379.00;5088442;28;20186;-75
2023/05/16 03:30:44;;;;;;;23.08;19.25;;;;;;;10.83;100.00;100392.91;5089493;28;20054;-74
2023/05/16 03:33:11;;;;;;;27.10;18.70;;;;;;;10.83;100.00;100388.47;5082967;28;20123;-73
2023/05/16 03:35:39;;;;;;;20.95;18.25;;;;;;;10.78;100.00;100387.09;5086935;28;20070;-74
2023/05/16 03:38:06;;;;;;;28.77;19.27;;;;;;;10.75;100.00;100392.53;5092748;28;20076;-75
2023/05/16 03:40:33;;;;;;;25.77;18.45;;;;;;;10.78;100.00;100395.81;5084156;28;20050;-74
2023/05/16 03:43:01;;;;;;;26.30;18.08;;;;;;;10.76;100.00;100400.34;5088218;28;20052;-75
2023/05/16 03:45:29;;;;;;;24.08;19.08;;;;;;;10.72;100.00;100400.66;5092241;28;20067;-73
2023/05/16 03:47:57;;;;;;;24.38;18.40;;;;;;;10.71;100.00;100399.78;5089349;28;20071;-75
2023/05/16 03:50:24;;;;;;;29.38;20.52;;;;;;;10.73;100.00;100394.44;5086641;28;20052;-76
2023/05/16 03:52:52;;;;;;;22.17;18.02;;;;;;;10.73;100.00;100397.91;5083622;28;20075;-73
2023/05/16 03:55:20;;;;;;;22.38;18.67;;;;;;;10.71;100.00;100396.31;5084801;28;20083;-74
2023/05/16 03:57:48;;;;;;;26.50;18.92;;;;;;;10.68;100.00;100404.41;5083557;28;20074;-79
2023/05/16 04:00:16;;;;;;;21.65;18.27;;;;;;;10.67;100.00;100392.16;5083752;28;20071;-73
2023/05/16 04:02:44;;;;;;;24.27;19.63;;;;;;;10.68;100.00;100407.03;5083625;28;20080;-74
2023/05/16 04:05:12;;;;;;;19.75;17.75;;;;;;;10.68;100.00;100415.78;5086172;28;20119;-76
2023/05/16 04:07:40;;;;;;;23.20;18.23;;;;;;;10.70;100.00;100421.78;5092133;28;20834;-76
2023/05/16 04:10:08;;;;;;;23.58;18.92;;;;;;;10.69;100.00;100419.25;5084528;28;20056;-78
2023/05/16 04:12:36;;;;;;;21.42;17.80;;;;;;;10.65;100.00;100422.06;5086682;28;20050;-77
2023/05/16 04:15:05;;;;;;;24.48;16.65;;;;;;;10.62;100.00;100424.88;5055634;28;20058;-77
2023/05/16 04:17:33;;;;;;;25.08;18.50;;;;;;;10.59;100.00;100430.38;5074688;28;20109;-74
2023/05/16 04:20:01;;;;;;;24.42;19.70;;;;;;;10.58;100.00;100423.41;5090904;28;20044;-75
2023/05/16 04:22:28;;;;;;;25.35;19.73;;;;;;;10.50;100.00;100427.47;5066556;28;22007;-77
2023/05/16 04:24:56;;;;;;;24.73;19.95;;;;;;;10.51;100.00;100432.63;5072463;28;20064;-77
2023/05/16 04:27:23;;;;;;;25.50;22.60;;;;;;;10.38;100.00;100448.31;5086086;28;20116;-75
2023/05/16 04:29:51;;;;;;;26.10;21.38;;;;;;;10.35;100.00;100451.13;5083990;28;20134;-77
2023/05/16 04:32:18;;;;;;;32.63;22.63;;;;;;;10.37;100.00;100458.94;5085740;28;20051;-77
2023/05/16 04:34:47;;;;;;;28.75;21.35;;;;;;;10.33;100.00;100452.16;5084343;28;20111;-77
2023/05/16 04:37:14;;;;;;;28.77;21.85;;;;;;;10.33;100.00;100455.63;5076571;28;20096;-75
2023/05/16 04:39:42;;;;;;;25.67;22.13;;;;;;;10.36;100.00;100458.09;5085929;28;20075;-73
2023/05/16 04:42:09;;;;;;;32.45;22.75;;;;;;;10.32;100.00;100475.00;5084193;28;20048;-77
2023/05/16 04:44:36;;;;;;;28.17;21.45;;;;;;;10.29;100.00;100467.28;5071527;28;20052;-77
2023/05/16 04:47:04;;;;;;;26.85;20.80;;;;;;;10.28;100.00;100478.75;5078342;28;20109;-74
2023/05/16 04:49:31;;;;;;;29.83;23.05;;;;;;;10.26;100.00;100479.78;5086370;28;20130;-75
2023/05/16 04:51:59;;;;;;;25.75;19.27;;;;;;;10.25;100.00;100476.28;5085124;28;20052;-75
2023/05/16 04:54:26;;;;;;;28.27;22.63;;;;;;;10.26;100.00;100482.41;5085057;28;20083;-78
2023/05/16 04:56:53;;;;;;;29.20;21.70;;;;;;;10.28;100.00;100485.81;5083708;28;20131;-77
2023/05/16 04:59:20;;;;;;;27.90;20.52;;;;;;;10.27;100.00;100490.22;5083333;28;20550;-76
2023/05/16 05:01:48;;;;;;;28.23;22.55;;;;;;;10.22;100.00;100496.63;5076640;28;20148;-78
2023/05/16 05:04:16;;;;;;;33.85;23.65;;;;;;;10.22;100.00;100501.91;5086165;28;20127;-77
2023/05/16 05:06:43;;;;;;;28.35;22.70;;;;;;;10.08;100.00;100503.56;5081651;28;20151;-77
2023/05/16 05:09:11;;;;;;;33.60;22.48;;;;;;;10.06;100.00;100512.50;5065434;28;20124;-77
2023/05/16 05:11:38;;;;;;;32.80;23.25;;;;;;;10.05;100.00;100519.53;5079837;28;20083;-75
2023/05/16 05:14:06;;;;;;;28.13;22.98;;;;;;;10.10;100.00;100525.38;5080632;28;20090;-77
2023/05/16 05:16:33;;;;;;;27.15;22.27;;;;;;;10.06;100.00;100523.03;5083192;28;20039;-76
2023/05/16 05:19:01;;;;;;;28.23;20.45;;;;;;;10.06;100.00;100528.28;5085893;28;20068;-77
2023/05/16 05:21:29;;;;;;;28.67;21.17;;;;;;;10.13;100.00;100532.22;5083337;28;20056;-78
2023/05/16 05:23:57;;;;;;;32.70;21.73;;;;;;;10.09;100.00;100539.47;5083991;28;20048;-77
2023/05/16 05:26:25;;;;;;;34.38;22.48;;;;;;;10.14;100.00;100539.22;5064110;28;20558;-75
2023/05/16 05:28:52;;;;;;;22.92;19.80;;;;;;;10.11;100.00;100542.00;5086083;28;20127;-77
2023/05/16 05:31:33;;;;;;;26.70;20.35;;;;;;;10.14;100.00;100550.56;5082411;28;20467;-76
2023/05/16 05:34:01;;;;;;;27.85;20.60;;;;;;;10.15;100.00;100544.38;5081793;28;20038;-76
2023/05/16 05:36:29;;;;;;;22.33;18.45;;;;;;;10.21;100.00;100540.53;5060177;28;20044;-76
2023/05/16 05:38:57;;;;;;;22.63;19.08;;;;;;;10.21;100.00;100552.84;5078809;28;20056;-77
2023/05/16 05:41:30;;;;;;;30.73;18.20;;;;;;;10.25;100.00;100551.75;5084041;28;20048;-78
2023/05/16 05:43:57;;;;;;;21.40;16.27;;;;;;;10.27;100.00;100563.06;5067462;28;20525;-76
2023/05/16 05:46:25;;;;;;;19.65;15.65;;;;;;;10.27;100.00;100563.91;5076766;28;20067;-76
2023/05/16 05:48:52;;;;;;;17.70;14.68;;;;;;;10.33;100.00;100570.56;5085205;28;20040;-77
2023/05/16 05:51:19;;;;;;;23.95;15.50;;;;;;;10.39;100.00;100575.47;5071327;28;20085;-77
2023/05/16 05:53:46;;;;;;;23.60;17.40;;;;;;;10.39;100.00;100578.09;5080801;28;20045;-76
2023/05/16 05:56:14;;;;;;;27.73;17.83;;;;;;;10.43;100.00;100581.41;5085706;28;20053;-76
2023/05/16 05:58:41;;;;;;;21.98;19.30;;;;;;;10.40;100.00;100582.41;5100507;28;20054;-77
2023/05/16 06:01:11;;;;;;;26.98;17.70;;;;;;;10.40;100.00;100579.78;5083274;28;20772;-78
2023/05/16 06:03:39;;;;;;;22.75;17.33;;;;;;;10.39;100.00;100593.88;5088786;28;20089;-77
2023/05/16 06:06:06;;;;;;;20.60;16.42;;;;;;;10.41;99.16;100591.19;5066684;28;20902;-76
2023/05/16 06:08:34;;;;;;;22.67;16.63;;;;;;;10.45;98.15;100583.03;5071453;28;20559;-77
2023/05/16 06:11:01;;;;;;;19.13;13.88;;;;;;;10.47;97.67;100596.91;5083866;28;20477;-77
2023/05/16 06:13:28;;;;;;;17.45;13.73;;;;;;;10.47;96.71;100586.38;5087855;28;20058;-77
2023/05/16 06:15:55;;;;;;;17.95;12.82;;;;;;;10.45;96.84;100585.66;5102123;28;20054;-76
2023/05/16 06:18:22;;;;;;;17.55;12.43;;;;;;;10.61;95.96;100589.03;5089225;28;20050;-76
2023/05/16 06:20:50;;;;;;;15.45;12.65;;;;;;;10.67;95.16;100585.19;5086000;28;20044;-76
2023/05/16 06:23:18;;;;;;;17.15;11.75;;;;;;;10.74;94.36;100580.44;5082071;28;20524;-77
2023/05/16 06:25:47;;;;;;;17.75;11.80;;;;;;;10.71;93.86;100586.72;5067733;28;20109;-76
2023/05/16 06:28:14;;;;;;;16.60;10.70;;;;;;;10.76;93.28;100587.31;5087284;28;20056;-76
2023/05/16 06:30:42;;;;;;;17.17;11.15;;;;;;;10.82;93.42;100588.72;5087670;28;20039;-77
2023/05/16 06:33:09;;;;;;;16.23;10.73;;;;;;;10.89;93.04;100590.84;5084395;28;20048;-75
2023/05/16 06:35:36;;;;;;;13.32;10.70;;;;;;;11.02;92.54;100587.50;5086902;28;20044;-75
2023/05/16 06:38:03;;;;;;;15.10;10.52;;;;;;;11.05;91.48;100601.31;5067942;28;20056;-76
2023/05/16 06:40:31;;;;;;;14.43;11.35;;;;;;;11.05;91.04;100593.41;5102131;27;20056;-76
2023/05/16 06:42:58;;;;;;;12.45;10.35;;;;;;;11.08;90.61;100605.56;5087682;28;20482;-76
2023/05/16 06:45:25;;;;;;;12.35;8.80;;;;;;;11.09;89.72;100599.34;5067413;28;20056;-76
2023/05/16 06:47:54;;;;;;;18.10;10.00;;;;;;;10.85;90.91;100613.09;5085654;28;20048;-75
2023/05/16 06:50:23;;;;;;;11.30;10.05;;;;;;;10.92;90.74;100625.88;5089880;28;20048;-75
2023/05/16 06:52:51;;;;;;;12.25;8.52;;;;;;;10.89;90.58;100626.88;5089062;28;20048;-75
2023/05/16 06:55:18;;;;;;;12.25;9.43;;;;;;;10.92;90.67;100633.78;5067600;28;20693;-75
2023/05/16 06:57:46;;;;;;;17.40;9.35;;;;;;;10.86;90.75;100627.94;5088778;28;20145;-75
2023/05/16 07:00:14;;;;;;;15.70;9.43;;;;;;;10.90;90.88;100629.44;5083627;28;20056;-76
2023/05/16 07:02:41;;;;;;;10.40;8.27;;;;;;;11.00;90.18;100636.78;5086763;28;20597;-75
2023/05/16 07:05:09;;;;;;;16.15;8.50;;;;;;;10.98;90.00;100636.03;5086059;28;20143;-77
2023/05/16 07:07:36;;;;;;;12.95;8.32;;;;;;;11.08;89.93;100639.81;5070212;28;20044;-76
2023/05/16 07:10:04;;;;;;;13.85;7.97;;;;;;;11.06;89.08;100650.44;5066457;28;20058;-75
2023/05/16 07:12:31;;;;;;;18.08;8.65;;;;;;;11.08;89.15;100648.56;5087634;28;20064;-75
2023/05/16 07:14:58;;;;;;;13.35;8.43;;;;;;;11.18;89.59;100645.38;5085053;28;20143;-81
2023/05/16 07:17:26;;;;;;;13.77;8.13;;;;;;;11.21;88.25;100646.00;5086250;28;20052;-75
2023/05/16 07:19:53;;;;;;;11.70;7.13;;;;;;;11.06;88.63;100655.69;5087094;28;20093;-75
2023/05/16 07:22:20;;;;;;;13.90;7.25;;;;;;;11.08;88.90;100651.19;5053684;28;20155;-76
2023/05/16 07:24:47;;;;;;;8.98;6.97;;;;;;;11.05;89.23;100653.16;5063667;28;20669;-75
2023/05/16 07:27:15;;;;;;;11.50;7.15;;;;;;;11.22;88.83;100654.78;5084920;28;20409;-76
2023/05/16 07:29:42;;;;;;;11.82;6.28;;;;;;;11.37;87.56;100659.94;5069513;28;20088;-75
2023/05/16 07:32:09;;;;;;;9.20;6.72;;;;;;;11.36;87.25;100665.31;5083187;28;20055;-76
2023/05/16 07:34:37;;;;;;;12.77;7.13;;;;;;;11.24;87.50;100666.91;5081484;28;20530;-77
2023/05/16 07:37:06;;;;;;;12.02;6.55;;;;;;;11.43;87.55;100656.09;5085706;28;20052;-76
2023/05/16 07:39:33;;;;;;;9.52;5.68;;;;;;;11.63;85.92;100666.25;5086815;28;20040;-75
2023/05/16 07:42:00;;;;;;;8.45;6.45;;;;;;;11.64;84.36;100665.28;5082803;28;20063;-77
2023/05/16 07:44:28;;;;;;;11.73;6.10;;;;;;;11.85;83.05;100659.66;5069973;28;20641;-76
2023/05/16 07:46:55;;;;;;;12.90;5.35;;;;;;;11.86;82.96;100654.28;5084252;28;20567;-75
2023/05/16 07:49:23;;;;;;;14.80;5.65;;;;;;;11.90;82.69;100662.84;5084640;28;20044;-75
2023/05/16 07:51:50;;;;;;;8.18;5.18;;;;;;;11.79;82.80;100674.03;5082371;28;20044;-75
2023/05/16 07:54:17;;;;;;;7.47;5.10;;;;;;;11.83;82.49;100680.00;5083461;28;20052;-76
2023/05/16 07:56:44;;;;;;;9.60;4.85;;;;;;;11.78;81.58;100680.25;5084692;28;20046;-75
2023/05/16 07:59:12;;;;;;;6.90;4.53;;;;;;;11.74;81.88;100683.19;5068605;28;20070;-75
2023/05/16 08:01:39;;;;;;;6.47;3.90;;;;;;;11.75;82.08;100682.22;5080130;28;20054;-76
2023/05/16 08:04:06;;;;;;;7.75;4.47;;;;;;;11.80;81.24;100681.03;5086819;28;20047;-75
2023/05/16 08:06:34;;;;;;;8.32;4.13;;;;;;;11.84;81.24;100689.59;5083834;28;20134;-76
2023/05/16 08:09:01;;;;;;;5.97;4.22;;;;;;;11.84;81.15;100682.56;5083684;28;20048;-75
2023/05/16 08:11:28;;;;;;;8.82;3.90;;;;;;;11.77;81.13;100685.63;5064997;28;20091;-76
2023/05/16 08:13:56;;;;;;;6.28;3.70;;;;;;;11.81;81.38;100687.97;5086344;28;20726;-76
2023/05/16 08:16:23;;;;;;;6.82;4.10;;;;;;;11.70;81.38;100705.41;5069677;28;20105;-76
2023/05/16 08:18:50;;;;;;;8.73;4.25;;;;;;;11.70;81.62;100708.88;5096714;28;20068;-76
2023/05/16 08:21:18;;;;;;;5.97;3.33;;;;;;;11.70;82.07;100719.44;5067063;28;20040;-76
2023/05/16 08:23:45;;;;;;;17.13;3.90;;;;;;;11.69;81.94;100723.03;5083979;28;20493;-76
2023/05/16 08:26:12;;;;;;;8.75;3.83;;;;;;;11.64;81.58;100722.47;5077314;28;20055;-76
2023/05/16 08:28:39;;;;;;;5.63;3.67;;;;;;;11.55;81.67;100709.84;5081417;28;20048;-77
2023/05/16 08:31:07;;;;;;;4.90;3.08;;;;;;;11.56;81.42;100728.19;5083826;28;20051;-76
2023/05/16 08:37:53;;;;;;;10.00;2.90;;;;;;;11.44;81.76;100741.28;5084061;28;20093;-76
2023/05/16 08:40:21;;;;;;;7.18;3.60;;;;;;;11.40;81.81;100741.47;5084195;28;20427;-76
2023/05/16 08:42:49;;;;;;;6.28;2.58;;;;;;;11.43;82.24;100736.94;5065543;28;20057;-76
2023/05/16 08:45:16;;;;;;;10.68;3.22;;;;;;;11.41;81.45;100729.16;5083004;28;20448;-76
2023/05/16 08:47:44;;;;;;;7.68;3.05;;;;;;;11.48;81.37;100732.25;5081878;28;20062;-75
2023/05/16 08:50:12;;;;;;;7.82;2.95;;;;;;;11.48;81.40;100726.97;5084844;28;20054;-77
2023/05/16 08:52:41;;;;;;;6.90;2.47;;;;;;;11.49;80.80;100726.91;5079719;28;20543;-76
2023/05/16 08:55:11;;;;;;;7.90;2.72;;;;;;;11.53;80.60;100725.78;5065685;28;20055;-76
2023/05/16 08:57:39;;;;;;;5.25;2.30;;;;;;;11.60;79.96;100719.16;5083463;28;20591;-76
2023/05/16 09:00:10;;;;;;;7.72;2.40;;;;;;;11.55;80.24;100731.78;5081208;28;20048;-77
2023/05/16 09:02:43;;;;;;;6.70;2.60;;;;;;;11.52;80.53;100721.41;5082747;28;20054;-77
2023/05/16 09:05:12;;;;;;;6.93;2.70;;;;;;;11.54;80.51;100714.28;5068056;28;20060;-76
2023/05/16 09:07:43;;;;;;;8.07;2.45;;;;;;;11.68;79.60;100716.06;5063666;28;20060;-75
2023/05/16 09:10:11;;;;;;;5.57;1.95;;;;;;;11.76;78.57;100720.88;5078203;28;20093;-76
2023/05/16 09:12:40;;;;;;;8.00;2.03;;;;;;;11.77;77.94;100720.75;5081277;28;20430;-76
2023/05/16 09:15:09;;;;;;;6.45;2.10;;;;;;;11.83;77.23;100722.19;5066385;28;20047;-75
2023/05/16 09:17:38;;;;;;;7.32;2.40;;;;;;;11.74;77.60;100733.28;5081176;28;20435;-75
2023/05/16 09:20:10;;;;;;;6.57;2.67;;;;;;;11.84;77.71;100737.06;5080385;28;20051;-77
2023/05/16 09:22:38;;;;;;;9.95;2.30;;;;;;;11.93;77.23;100738.28;5069320;28;20044;-76
2023/05/16 09:25:06;;;;;;;5.20;2.10;;;;;;;12.07;76.87;100740.94;5089086;28;20055;-77
2023/05/16 09:27:41;;;;;;;9.85;2.72;;;;;;;12.16;76.10;100733.28;5088676;28;20070;-76
2023/05/16 09:30:09;;;;;;;11.02;1.98;;;;;;;12.14;75.90;100740.44;5089646;28;20260;-76
2023/05/16 09:32:42;;;;;;;6.70;2.03;;;;;;;12.12;76.01;100737.06;5085416;28;20036;-76
2023/05/16 09:35:14;;;;;;;8.20;1.85;;;;;;;12.06;76.10;100733.94;5071163;28;20058;-77
2023/05/16 09:37:53;;;;;;;7.35;2.00;;;;;;;12.00;76.24;100743.09;5090201;28;20139;-76
2023/05/16 09:40:24;;;;;;;6.20;2.40;;;;;;;12.06;76.48;100755.03;5091734;28;20046;-76
2023/05/16 09:43:05;;;;;;;6.20;1.75;;;;;;;12.18;75.54;100750.78;5075373;28;20052;-76
2023/05/16 09:45:33;;;;;;;7.20;2.03;;;;;;;12.38;74.25;100758.28;5072685;28;20540;-76
2023/05/16 09:52:13;;;;;;;12.90;2.35;;;;;;;12.59;71.29;100763.97;5081467;28;20124;-75
2023/05/16 09:54:41;;;;;;;4.25;1.80;;;;;;;12.63;71.48;100771.59;5085702;28;20074;-75
2023/05/16 09:57:09;;;;;;;6.30;1.80;;;;;;;12.64;71.22;100773.28;5087992;28;20052;-77
2023/05/16 09:59:37;;;;;;;7.45;1.98;;;;;;;12.47;71.29;100780.59;5087740;28;20055;-76
2023/05/16 10:02:06;;;;;;;5.60;1.85;;;;;;;12.43;71.43;100774.69;5072286;28;20051;-77
2023/05/16 10:04:34;;;;;;;5.57;1.63;;;;;;;12.41;72.22;100777.41;5089891;28;20075;-75
2023/05/16 10:07:08;;;;;;;3.83;1.67;;;;;;;12.36;72.45;100773.38;5070052;28;20130;-76
2023/05/16 10:09:35;;;;;;;6.82;2.30;;;;;;;12.34;72.61;100778.78;5090686;28;20139;-76
2023/05/16 10:12:05;;;;;;;13.02;2.35;;;;;;;12.20;73.72;100775.28;5088420;28;20141;-75
2023/05/16 10:14:36;;;;;;;7.00;2.60;;;;;;;12.22;73.90;100781.34;5085840;28;20050;-75
2023/05/16 10:17:05;;;;;;;8.07;2.42;;;;;;;12.20;74.08;100785.84;5068869;28;20048;-76
2023/05/16 10:19:36;;;;;;;13.95;2.95;;;;;;;12.20;74.23;100784.03;5088083;28;20177;-76
2023/05/16 10:22:05;;;;;;;9.13;2.63;;;;;;;12.25;74.25;100776.72;5085856;28;20789;-76
2023/05/16 10:24:43;;;;;;;7.75;2.67;;;;;;;12.39;73.72;100784.59;5083833;28;20119;-75
2023/05/16 10:27:10;;;;;;;7.50;2.65;;;;;;;12.23;73.84;100775.09;5083587;28;20044;-75
2023/05/16 10:29:38;;;;;;;8.27;2.58;;;;;;;12.23;74.06;100775.94;5087782;28;20672;-76
2023/05/16 10:32:22;;;;;;;9.80;2.22;;;;;;;12.14;74.55;100779.16;5069741;28;20056;-77
2023/05/16 10:34:49;;;;;;;14.30;3.08;;;;;;;12.09;75.06;100775.97;5069940;28;20609;-76
2023/05/16 10:37:17;;;;;;;8.18;2.65;;;;;;;12.35;75.00;100774.31;5084608;28;20454;-77
2023/05/16 10:39:45;;;;;;;11.93;3.20;;;;;;;12.87;72.75;100782.34;5085632;28;20044;-76
2023/05/16 10:42:17;;;;;;;8.13;2.38;;;;;;;13.10;72.27;100786.13;5081662;28;20131;-75
2023/05/16 10:44:44;;;;;;;9.65;3.03;;;;;;;13.20;72.17;100781.06;5052521;28;20062;-75
2023/05/16 10:47:28;;;;;;;10.25;2.35;;;;;;;13.23;72.25;100788.78;5084145;28;20071;-76
2023/05/16 10:49:55;;;;;;;10.25;2.80;;;;;;;13.18;71.69;100794.38;5071068;28;20127;-75
2023/05/16 10:52:32;;;;;;;12.32;2.50;;;;;;;12.98;72.12;100788.72;5088497;28;20131;-76
2023/05/16 10:55:02;;;;;;;9.18;2.72;;;;;;;12.79;73.25;100794.34;5088159;28;20117;-75
2023/05/16 10:57:31;;;;;;;11.75;3.58;;;;;;;12.68;73.59;100793.25;5054298;28;20047;-75
2023/05/16 11:00:00;;;;;;;9.30;2.53;;;;;;;12.58;74.26;100807.19;5056194;28;20051;-76
2023/05/16 11:02:32;;;;;;;18.42;3.05;;;;;;;12.42;74.30;100807.28;5050074;28;20486;-76
2023/05/16 11:05:01;;;;;;;12.85;2.88;;;;;;;12.30;74.06;100797.53;5086899;28;20072;-75
2023/05/16 11:07:33;;;;;;;12.18;2.55;;;;;;;12.29;74.05;100806.38;5084860;28;20060;-75
2023/05/16 11:10:03;;;;;;;16.40;3.20;;;;;;;12.33;72.91;100805.25;5087929;28;20140;-75
2023/05/16 11:12:49;;;;;;;11.32;2.83;;;;;;;12.42;72.42;100808.13;5066377;28;20055;-75
2023/05/16 11:15:22;;;;;;;11.13;2.70;;;;;;;12.65;71.26;100817.25;5082238;28;20052;-75
2023/05/16 11:21:03;;;;;;;15.85;2.13;;;;;;;13.21;67.50;100818.91;5084014;28;20056;-76
2023/05/16 11:23:30;;;;;;;12.85;2.85;;;;;;;13.21;66.13;100829.50;5080475;28;20050;-76
2023/05/16 11:25:59;;;;;;;13.32;2.88;;;;;;;13.12;66.50;100820.38;5080857;28;20100;-76
2023/05/16 11:28:27;;;;;;;13.18;2.53;;;;;;;13.33;65.64;100821.63;5082536;28;20063;-76
2023/05/16 11:30:57;;;;;;;7.85;2.30;;;;;;;13.43;64.64;100820.03;5069205;28;20075;-75
2023/05/16 11:33:24;;;;;;;12.93;2.25;;;;;;;13.18;65.43;100815.50;5086343;28;20052;-75
2023/05/16 11:36:01;;;;;;;9.00;2.20;;;;;;;13.12;64.94;100805.34;5070344;28;20046;-75